sensor_id;sensor_type;location;lat;lon;timestamp;P1;durP1;ratioP1;P2;durP2;ratioP2
27163;SDS011;14685;50.618;7.024;2024-03-25T00:00:41;13.30;;;3.42;;
27163;SDS011;14685;50.618;7.024;2024-03-25T00:03:07;15.93;;;3.30;;
27163;SDS011;14685;50.618;7.024;2024-03-25T00:05:33;6.10;;;2.90;;
27163;SDS011;14685;50.618;7.024;2024-03-25T00:07:59;13.90;;;3.10;;
27163;SDS011;14685;50.618;7.024;2024-03-25T00:10:25;13.73;;;3.30;;
27163;SDS011;14685;50.618;7.024;2024-03-25T00:12:51;15.32;;;4.03;;
27163;SDS011;14685;50.618;7.024;2024-03-25T00:15:21;10.52;;;2.92;;
27163;SDS011;14685;50.618;7.024;2024-03-25T00:17:49;12.52;;;3.53;;
27163;SDS011;14685;50.618;7.024;2024-03-25T00:20:15;13.40;;;3.25;;
27163;SDS011;14685;50.618;7.024;2024-03-25T00:22:41;15.02;;;3.38;;
27163;SDS011;14685;50.618;7.024;2024-03-25T00:25:08;15.00;;;3.53;;
27163;SDS011;14685;50.618;7.024;2024-03-25T00:27:34;12.20;;;3.67;;
27163;SDS011;14685;50.618;7.024;2024-03-25T00:30:00;17.25;;;3.50;;
27163;SDS011;14685;50.618;7.024;2024-03-25T00:32:27;12.73;;;3.08;;
27163;SDS011;14685;50.618;7.024;2024-03-25T00:34:53;12.35;;;3.30;;
27163;SDS011;14685;50.618;7.024;2024-03-25T00:37:19;14.65;;;3.65;;
27163;SDS011;14685;50.618;7.024;2024-03-25T00:39:45;16.27;;;3.90;;
27163;SDS011;14685;50.618;7.024;2024-03-25T00:42:11;13.15;;;3.30;;
27163;SDS011;14685;50.618;7.024;2024-03-25T00:44:37;13.77;;;3.15;;
27163;SDS011;14685;50.618;7.024;2024-03-25T00:47:03;15.35;;;2.80;;
27163;SDS011;14685;50.618;7.024;2024-03-25T00:49:29;9.80;;;3.15;;
27163;SDS011;14685;50.618;7.024;2024-03-25T00:51:56;10.45;;;2.95;;
27163;SDS011;14685;50.618;7.024;2024-03-25T00:54:21;18.40;;;3.40;;
27163;SDS011;14685;50.618;7.024;2024-03-25T00:56:48;13.82;;;3.25;;
27163;SDS011;14685;50.618;7.024;2024-03-25T00:59:16;16.63;;;3.72;;
27163;SDS011;14685;50.618;7.024;2024-03-25T01:01:42;14.00;;;4.13;;
27163;SDS011;14685;50.618;7.024;2024-03-25T01:04:08;18.02;;;3.45;;
27163;SDS011;14685;50.618;7.024;2024-03-25T01:06:34;14.90;;;3.95;;
27163;SDS011;14685;50.618;7.024;2024-03-25T01:09:00;14.10;;;2.97;;
27163;SDS011;14685;50.618;7.024;2024-03-25T01:11:26;19.25;;;3.72;;
27163;SDS011;14685;50.618;7.024;2024-03-25T01:13:52;17.95;;;3.70;;
27163;SDS011;14685;50.618;7.024;2024-03-25T01:16:17;17.00;;;3.17;;
27163;SDS011;14685;50.618;7.024;2024-03-25T01:18:43;9.82;;;2.47;;
27163;SDS011;14685;50.618;7.024;2024-03-25T01:21:09;13.50;;;3.08;;
27163;SDS011;14685;50.618;7.024;2024-03-25T01:23:35;11.40;;;3.10;;
27163;SDS011;14685;50.618;7.024;2024-03-25T01:26:00;17.10;;;3.75;;
27163;SDS011;14685;50.618;7.024;2024-03-25T01:28:26;19.38;;;2.88;;
27163;SDS011;14685;50.618;7.024;2024-03-25T01:30:52;16.65;;;3.45;;
27163;SDS011;14685;50.618;7.024;2024-03-25T01:33:19;14.02;;;3.25;;
27163;SDS011;14685;50.618;7.024;2024-03-25T01:35:45;21.85;;;3.25;;
27163;SDS011;14685;50.618;7.024;2024-03-25T01:38:11;21.33;;;3.80;;
27163;SDS011;14685;50.618;7.024;2024-03-25T01:40:37;13.25;;;3.40;;
27163;SDS011;14685;50.618;7.024;2024-03-25T01:43:03;12.60;;;3.05;;
27163;SDS011;14685;50.618;7.024;2024-03-25T01:45:29;11.63;;;3.17;;
27163;SDS011;14685;50.618;7.024;2024-03-25T01:47:58;10.68;;;3.03;;
27163;SDS011;14685;50.618;7.024;2024-03-25T01:50:26;18.83;;;3.50;;
27163;SDS011;14685;50.618;7.024;2024-03-25T01:52:53;15.55;;;3.75;;
27163;SDS011;14685;50.618;7.024;2024-03-25T01:55:24;14.60;;;3.65;;
27163;SDS011;14685;50.618;7.024;2024-03-25T02:00:19;12.35;;;3.30;;
27163;SDS011;14685;50.618;7.024;2024-03-25T02:02:46;15.38;;;2.95;;
27163;SDS011;14685;50.618;7.024;2024-03-25T02:05:16;18.00;;;3.10;;
27163;SDS011;14685;50.618;7.024;2024-03-25T02:07:42;12.02;;;3.20;;
27163;SDS011;14685;50.618;7.024;2024-03-25T02:10:09;14.40;;;3.55;;
27163;SDS011;14685;50.618;7.024;2024-03-25T02:12:38;11.70;;;2.90;;
27163;SDS011;14685;50.618;7.024;2024-03-25T02:15:05;16.77;;;4.05;;
27163;SDS011;14685;50.618;7.024;2024-03-25T02:17:31;17.55;;;3.22;;
27163;SDS011;14685;50.618;7.024;2024-03-25T02:19:58;12.40;;;2.95;;
27163;SDS011;14685;50.618;7.024;2024-03-25T02:22:25;16.73;;;3.55;;
27163;SDS011;14685;50.618;7.024;2024-03-25T02:24:52;12.45;;;2.80;;
27163;SDS011;14685;50.618;7.024;2024-03-25T02:27:21;9.70;;;3.10;;
27163;SDS011;14685;50.618;7.024;2024-03-25T02:29:48;13.18;;;2.70;;
27163;SDS011;14685;50.618;7.024;2024-03-25T02:32:13;17.48;;;3.10;;
27163;SDS011;14685;50.618;7.024;2024-03-25T02:34:43;17.20;;;3.70;;
27163;SDS011;14685;50.618;7.024;2024-03-25T02:37:11;12.77;;;3.22;;
27163;SDS011;14685;50.618;7.024;2024-03-25T02:39:38;13.75;;;3.35;;
27163;SDS011;14685;50.618;7.024;2024-03-25T02:42:05;15.05;;;3.15;;
27163;SDS011;14685;50.618;7.024;2024-03-25T02:44:31;20.17;;;3.22;;
27163;SDS011;14685;50.618;7.024;2024-03-25T02:46:58;17.25;;;3.10;;
27163;SDS011;14685;50.618;7.024;2024-03-25T02:49:24;6.90;;;2.80;;
27163;SDS011;14685;50.618;7.024;2024-03-25T02:51:51;16.08;;;2.55;;
27163;SDS011;14685;50.618;7.024;2024-03-25T02:54:17;12.98;;;2.83;;
27163;SDS011;14685;50.618;7.024;2024-03-25T02:56:43;13.50;;;3.08;;
27163;SDS011;14685;50.618;7.024;2024-03-25T02:59:09;10.30;;;3.10;;
27163;SDS011;14685;50.618;7.024;2024-03-25T03:01:35;16.15;;;4.00;;
27163;SDS011;14685;50.618;7.024;2024-03-25T03:04:01;9.43;;;2.92;;
27163;SDS011;14685;50.618;7.024;2024-03-25T03:06:27;15.38;;;2.90;;
27163;SDS011;14685;50.618;7.024;2024-03-25T03:08:53;12.50;;;3.20;;
27163;SDS011;14685;50.618;7.024;2024-03-25T03:11:19;9.95;;;2.95;;
27163;SDS011;14685;50.618;7.024;2024-03-25T03:13:45;15.57;;;3.40;;
27163;SDS011;14685;50.618;7.024;2024-03-25T03:16:11;11.75;;;3.22;;
27163;SDS011;14685;50.618;7.024;2024-03-25T03:18:37;10.32;;;2.67;;
27163;SDS011;14685;50.618;7.024;2024-03-25T03:21:04;17.08;;;3.50;;
27163;SDS011;14685;50.618;7.024;2024-03-25T03:23:30;17.48;;;3.10;;
27163;SDS011;14685;50.618;7.024;2024-03-25T03:25:56;16.17;;;3.65;;
27163;SDS011;14685;50.618;7.024;2024-03-25T03:28:25;12.48;;;3.22;;
27163;SDS011;14685;50.618;7.024;2024-03-25T03:30:51;13.25;;;2.80;;
27163;SDS011;14685;50.618;7.024;2024-03-25T03:33:16;23.55;;;3.85;;
27163;SDS011;14685;50.618;7.024;2024-03-25T03:35:42;11.93;;;3.55;;
27163;SDS011;14685;50.618;7.024;2024-03-25T03:38:08;12.13;;;3.63;;
27163;SDS011;14685;50.618;7.024;2024-03-25T03:40:34;11.27;;;2.85;;
27163;SDS011;14685;50.618;7.024;2024-03-25T03:43:00;11.65;;;2.85;;
27163;SDS011;14685;50.618;7.024;2024-03-25T03:45:26;11.23;;;3.47;;
27163;SDS011;14685;50.618;7.024;2024-03-25T03:47:52;13.75;;;2.90;;
27163;SDS011;14685;50.618;7.024;2024-03-25T03:50:17;11.20;;;3.13;;
27163;SDS011;14685;50.618;7.024;2024-03-25T03:52:43;10.30;;;3.88;;
27163;SDS011;14685;50.618;7.024;2024-03-25T03:55:09;15.63;;;3.15;;
27163;SDS011;14685;50.618;7.024;2024-03-25T03:57:35;10.65;;;3.38;;
27163;SDS011;14685;50.618;7.024;2024-03-25T04:00:02;9.68;;;2.90;;
27163;SDS011;14685;50.618;7.024;2024-03-25T04:02:29;16.33;;;3.05;;
27163;SDS011;14685;50.618;7.024;2024-03-25T04:04:55;25.45;;;3.92;;
27163;SDS011;14685;50.618;7.024;2024-03-25T04:07:21;14.95;;;3.67;;
27163;SDS011;14685;50.618;7.024;2024-03-25T04:09:53;10.70;;;3.25;;
27163;SDS011;14685;50.618;7.024;2024-03-25T04:12:19;13.00;;;3.42;;
27163;SDS011;14685;50.618;7.024;2024-03-25T04:14:48;9.15;;;2.85;;
27163;SDS011;14685;50.618;7.024;2024-03-25T04:17:14;13.43;;;3.30;;
27163;SDS011;14685;50.618;7.024;2024-03-25T04:19:40;8.77;;;2.70;;
27163;SDS011;14685;50.618;7.024;2024-03-25T04:22:06;11.77;;;3.13;;
27163;SDS011;14685;50.618;7.024;2024-03-25T04:24:32;16.00;;;3.35;;
27163;SDS011;14685;50.618;7.024;2024-03-25T04:26:59;10.20;;;2.92;;
27163;SDS011;14685;50.618;7.024;2024-03-25T04:29:25;15.38;;;3.13;;
27163;SDS011;14685;50.618;7.024;2024-03-25T04:31:51;10.10;;;3.00;;
27163;SDS011;14685;50.618;7.024;2024-03-25T04:34:17;7.35;;;2.58;;
27163;SDS011;14685;50.618;7.024;2024-03-25T04:36:42;7.50;;;2.75;;
27163;SDS011;14685;50.618;7.024;2024-03-25T04:39:08;14.88;;;2.90;;
27163;SDS011;14685;50.618;7.024;2024-03-25T04:41:36;13.50;;;3.33;;
27163;SDS011;14685;50.618;7.024;2024-03-25T04:44:02;10.52;;;2.70;;
27163;SDS011;14685;50.618;7.024;2024-03-25T04:46:28;12.38;;;3.40;;
27163;SDS011;14685;50.618;7.024;2024-03-25T04:48:54;14.15;;;3.35;;
27163;SDS011;14685;50.618;7.024;2024-03-25T04:51:20;7.60;;;2.53;;
27163;SDS011;14685;50.618;7.024;2024-03-25T04:53:46;17.10;;;3.20;;
27163;SDS011;14685;50.618;7.024;2024-03-25T04:56:12;13.88;;;3.10;;
27163;SDS011;14685;50.618;7.024;2024-03-25T04:58:38;11.85;;;2.88;;
27163;SDS011;14685;50.618;7.024;2024-03-25T05:01:06;15.98;;;3.78;;
27163;SDS011;14685;50.618;7.024;2024-03-25T05:03:31;12.88;;;3.10;;
27163;SDS011;14685;50.618;7.024;2024-03-25T05:05:57;11.40;;;3.90;;
27163;SDS011;14685;50.618;7.024;2024-03-25T05:08:23;11.98;;;2.88;;
27163;SDS011;14685;50.618;7.024;2024-03-25T05:10:50;15.60;;;3.65;;
27163;SDS011;14685;50.618;7.024;2024-03-25T05:13:16;14.10;;;3.85;;
27163;SDS011;14685;50.618;7.024;2024-03-25T05:15:49;10.00;;;3.92;;
27163;SDS011;14685;50.618;7.024;2024-03-25T05:18:18;14.43;;;3.22;;
27163;SDS011;14685;50.618;7.024;2024-03-25T05:20:44;9.23;;;2.85;;
27163;SDS011;14685;50.618;7.024;2024-03-25T05:23:10;10.45;;;2.80;;
27163;SDS011;14685;50.618;7.024;2024-03-25T05:25:36;13.80;;;3.38;;
27163;SDS011;14685;50.618;7.024;2024-03-25T05:28:04;12.50;;;3.60;;
27163;SDS011;14685;50.618;7.024;2024-03-25T05:30:30;7.82;;;2.78;;
27163;SDS011;14685;50.618;7.024;2024-03-25T05:32:56;9.38;;;2.80;;
27163;SDS011;14685;50.618;7.024;2024-03-25T05:35:21;10.77;;;2.72;;
27163;SDS011;14685;50.618;7.024;2024-03-25T05:37:47;8.60;;;2.47;;
27163;SDS011;14685;50.618;7.024;2024-03-25T05:40:13;7.22;;;2.50;;
27163;SDS011;14685;50.618;7.024;2024-03-25T05:42:40;11.25;;;2.95;;
27163;SDS011;14685;50.618;7.024;2024-03-25T05:45:09;9.45;;;2.90;;
27163;SDS011;14685;50.618;7.024;2024-03-25T05:47:35;8.88;;;3.13;;
27163;SDS011;14685;50.618;7.024;2024-03-25T05:50:01;8.95;;;2.70;;
27163;SDS011;14685;50.618;7.024;2024-03-25T05:52:30;8.80;;;2.55;;
27163;SDS011;14685;50.618;7.024;2024-03-25T05:54:56;9.45;;;2.88;;
27163;SDS011;14685;50.618;7.024;2024-03-25T05:57:23;7.75;;;3.20;;
27163;SDS011;14685;50.618;7.024;2024-03-25T05:59:49;7.72;;;2.95;;
27163;SDS011;14685;50.618;7.024;2024-03-25T06:02:15;12.30;;;3.03;;
27163;SDS011;14685;50.618;7.024;2024-03-25T06:04:40;11.45;;;3.00;;
27163;SDS011;14685;50.618;7.024;2024-03-25T06:07:06;9.13;;;3.08;;
27163;SDS011;14685;50.618;7.024;2024-03-25T06:09:32;11.07;;;3.42;;
27163;SDS011;14685;50.618;7.024;2024-03-25T06:11:58;9.52;;;2.78;;
27163;SDS011;14685;50.618;7.024;2024-03-25T06:14:24;10.23;;;2.90;;
27163;SDS011;14685;50.618;7.024;2024-03-25T06:16:50;14.45;;;3.03;;
27163;SDS011;14685;50.618;7.024;2024-03-25T06:19:15;8.48;;;2.60;;
27163;SDS011;14685;50.618;7.024;2024-03-25T06:21:41;7.38;;;3.30;;
27163;SDS011;14685;50.618;7.024;2024-03-25T06:24:08;7.85;;;2.75;;
27163;SDS011;14685;50.618;7.024;2024-03-25T06:26:34;8.07;;;2.42;;
27163;SDS011;14685;50.618;7.024;2024-03-25T06:29:00;11.60;;;2.78;;
27163;SDS011;14685;50.618;7.024;2024-03-25T06:31:26;9.50;;;3.25;;
27163;SDS011;14685;50.618;7.024;2024-03-25T06:36:47;7.13;;;2.35;;
27163;SDS011;14685;50.618;7.024;2024-03-25T06:39:13;5.60;;;3.05;;
27163;SDS011;14685;50.618;7.024;2024-03-25T06:41:40;10.02;;;3.60;;
27163;SDS011;14685;50.618;7.024;2024-03-25T06:44:06;10.80;;;3.40;;
27163;SDS011;14685;50.618;7.024;2024-03-25T06:46:32;6.57;;;2.72;;
27163;SDS011;14685;50.618;7.024;2024-03-25T06:48:59;6.78;;;2.90;;
27163;SDS011;14685;50.618;7.024;2024-03-25T06:51:25;10.55;;;3.13;;
27163;SDS011;14685;50.618;7.024;2024-03-25T06:53:51;13.02;;;4.32;;
27163;SDS011;14685;50.618;7.024;2024-03-25T06:56:17;8.52;;;3.20;;
27163;SDS011;14685;50.618;7.024;2024-03-25T06:58:43;14.18;;;4.15;;
27163;SDS011;14685;50.618;7.024;2024-03-25T07:01:09;13.10;;;4.05;;
27163;SDS011;14685;50.618;7.024;2024-03-25T07:03:37;8.50;;;3.85;;
27163;SDS011;14685;50.618;7.024;2024-03-25T07:06:04;7.85;;;4.35;;
27163;SDS011;14685;50.618;7.024;2024-03-25T07:08:30;9.52;;;3.65;;
27163;SDS011;14685;50.618;7.024;2024-03-25T07:10:56;8.75;;;4.38;;
27163;SDS011;14685;50.618;7.024;2024-03-25T07:13:23;11.52;;;3.83;;
27163;SDS011;14685;50.618;7.024;2024-03-25T07:15:49;10.05;;;3.30;;
27163;SDS011;14685;50.618;7.024;2024-03-25T07:18:15;8.52;;;3.72;;
27163;SDS011;14685;50.618;7.024;2024-03-25T07:20:42;9.02;;;3.55;;
27163;SDS011;14685;50.618;7.024;2024-03-25T07:23:09;7.43;;;3.20;;
27163;SDS011;14685;50.618;7.024;2024-03-25T07:25:35;10.15;;;3.58;;
27163;SDS011;14685;50.618;7.024;2024-03-25T07:28:01;9.07;;;3.15;;
27163;SDS011;14685;50.618;7.024;2024-03-25T07:30:28;12.50;;;3.70;;
27163;SDS011;14685;50.618;7.024;2024-03-25T07:32:58;7.85;;;3.17;;
27163;SDS011;14685;50.618;7.024;2024-03-25T07:35:24;9.35;;;2.92;;
27163;SDS011;14685;50.618;7.024;2024-03-25T07:37:50;10.88;;;3.53;;
27163;SDS011;14685;50.618;7.024;2024-03-25T07:40:17;8.30;;;3.28;;
27163;SDS011;14685;50.618;7.024;2024-03-25T07:42:43;11.23;;;3.28;;
27163;SDS011;14685;50.618;7.024;2024-03-25T07:45:09;8.00;;;3.10;;
27163;SDS011;14685;50.618;7.024;2024-03-25T07:47:35;5.97;;;2.60;;
27163;SDS011;14685;50.618;7.024;2024-03-25T07:50:01;9.00;;;2.55;;
27163;SDS011;14685;50.618;7.024;2024-03-25T07:52:28;8.55;;;2.70;;
27163;SDS011;14685;50.618;7.024;2024-03-25T07:54:54;8.18;;;2.92;;
27163;SDS011;14685;50.618;7.024;2024-03-25T07:57:21;13.57;;;2.60;;
27163;SDS011;14685;50.618;7.024;2024-03-25T07:59:47;6.97;;;2.45;;
27163;SDS011;14685;50.618;7.024;2024-03-25T08:02:13;8.35;;;2.50;;
27163;SDS011;14685;50.618;7.024;2024-03-25T08:04:39;14.20;;;3.05;;
27163;SDS011;14685;50.618;7.024;2024-03-25T08:07:05;10.75;;;2.50;;
27163;SDS011;14685;50.618;7.024;2024-03-25T08:09:31;11.40;;;2.80;;
27163;SDS011;14685;50.618;7.024;2024-03-25T08:11:56;12.82;;;2.28;;
27163;SDS011;14685;50.618;7.024;2024-03-25T08:14:22;10.80;;;3.03;;
27163;SDS011;14685;50.618;7.024;2024-03-25T08:16:48;12.75;;;2.90;;
27163;SDS011;14685;50.618;7.024;2024-03-25T08:19:14;10.48;;;2.67;;
27163;SDS011;14685;50.618;7.024;2024-03-25T08:21:40;8.80;;;2.65;;
27163;SDS011;14685;50.618;7.024;2024-03-25T08:24:06;12.32;;;2.78;;
27163;SDS011;14685;50.618;7.024;2024-03-25T08:26:32;12.48;;;3.13;;
27163;SDS011;14685;50.618;7.024;2024-03-25T08:28:58;9.40;;;2.67;;
27163;SDS011;14685;50.618;7.024;2024-03-25T08:31:24;8.75;;;2.78;;
27163;SDS011;14685;50.618;7.024;2024-03-25T08:33:50;11.13;;;3.10;;
27163;SDS011;14685;50.618;7.024;2024-03-25T08:36:15;9.77;;;2.88;;
27163;SDS011;14685;50.618;7.024;2024-03-25T08:38:41;19.00;;;3.65;;
27163;SDS011;14685;50.618;7.024;2024-03-25T08:41:07;9.73;;;3.08;;
27163;SDS011;14685;50.618;7.024;2024-03-25T08:43:33;10.02;;;2.92;;
27163;SDS011;14685;50.618;7.024;2024-03-25T08:45:59;12.05;;;2.85;;
27163;SDS011;14685;50.618;7.024;2024-03-25T08:48:25;9.65;;;2.90;;
27163;SDS011;14685;50.618;7.024;2024-03-25T08:50:52;7.03;;;3.05;;
27163;SDS011;14685;50.618;7.024;2024-03-25T08:53:19;12.15;;;3.53;;
27163;SDS011;14685;50.618;7.024;2024-03-25T08:55:47;7.35;;;2.42;;
27163;SDS011;14685;50.618;7.024;2024-03-25T08:58:13;10.38;;;2.90;;
27163;SDS011;14685;50.618;7.024;2024-03-25T09:00:41;11.77;;;3.33;;
27163;SDS011;14685;50.618;7.024;2024-03-25T09:03:08;11.30;;;2.55;;
27163;SDS011;14685;50.618;7.024;2024-03-25T09:05:38;10.35;;;2.80;;
27163;SDS011;14685;50.618;7.024;2024-03-25T09:08:05;8.80;;;2.38;;
27163;SDS011;14685;50.618;7.024;2024-03-25T09:10:31;10.70;;;2.35;;
27163;SDS011;14685;50.618;7.024;2024-03-25T09:13:16;10.32;;;3.13;;
27163;SDS011;14685;50.618;7.024;2024-03-25T09:15:42;7.00;;;2.67;;
27163;SDS011;14685;50.618;7.024;2024-03-25T09:18:08;11.27;;;3.28;;
27163;SDS011;14685;50.618;7.024;2024-03-25T09:20:34;14.95;;;3.17;;
27163;SDS011;14685;50.618;7.024;2024-03-25T09:23:00;7.35;;;2.55;;
27163;SDS011;14685;50.618;7.024;2024-03-25T09:25:26;9.38;;;2.35;;
27163;SDS011;14685;50.618;7.024;2024-03-25T09:27:51;9.40;;;2.97;;
27163;SDS011;14685;50.618;7.024;2024-03-25T09:30:17;8.07;;;2.58;;
27163;SDS011;14685;50.618;7.024;2024-03-25T09:32:46;8.55;;;2.45;;
27163;SDS011;14685;50.618;7.024;2024-03-25T09:35:13;11.02;;;2.95;;
27163;SDS011;14685;50.618;7.024;2024-03-25T09:37:39;13.10;;;3.17;;
27163;SDS011;14685;50.618;7.024;2024-03-25T09:40:05;9.48;;;2.92;;
27163;SDS011;14685;50.618;7.024;2024-03-25T09:42:35;12.27;;;2.45;;
27163;SDS011;14685;50.618;7.024;2024-03-25T09:45:18;7.55;;;3.05;;
27163;SDS011;14685;50.618;7.024;2024-03-25T09:47:47;9.90;;;2.83;;
27163;SDS011;14685;50.618;7.024;2024-03-25T09:50:14;9.25;;;2.78;;
27163;SDS011;14685;50.618;7.024;2024-03-25T09:52:46;10.32;;;3.15;;
27163;SDS011;14685;50.618;7.024;2024-03-25T09:55:12;7.70;;;2.13;;
27163;SDS011;14685;50.618;7.024;2024-03-25T09:57:38;9.30;;;2.53;;
27163;SDS011;14685;50.618;7.024;2024-03-25T10:00:07;6.78;;;2.35;;
27163;SDS011;14685;50.618;7.024;2024-03-25T10:02:37;9.77;;;2.80;;
27163;SDS011;14685;50.618;7.024;2024-03-25T10:05:04;5.38;;;2.53;;
27163;SDS011;14685;50.618;7.024;2024-03-25T10:07:32;6.60;;;2.38;;
27163;SDS011;14685;50.618;7.024;2024-03-25T10:09:58;8.52;;;2.20;;
27163;SDS011;14685;50.618;7.024;2024-03-25T10:12:24;7.47;;;2.20;;
27163;SDS011;14685;50.618;7.024;2024-03-25T10:14:50;6.82;;;2.00;;
27163;SDS011;14685;50.618;7.024;2024-03-25T10:17:16;7.55;;;2.20;;
27163;SDS011;14685;50.618;7.024;2024-03-25T10:19:42;5.47;;;2.22;;
27163;SDS011;14685;50.618;7.024;2024-03-25T10:22:08;5.28;;;1.90;;
27163;SDS011;14685;50.618;7.024;2024-03-25T10:24:44;5.35;;;2.08;;
27163;SDS011;14685;50.618;7.024;2024-03-25T10:27:16;6.43;;;2.17;;
27163;SDS011;14685;50.618;7.024;2024-03-25T10:29:52;12.52;;;2.22;;
27163;SDS011;14685;50.618;7.024;2024-03-25T10:32:20;5.50;;;2.20;;
27163;SDS011;14685;50.618;7.024;2024-03-25T10:34:47;8.02;;;2.20;;
27163;SDS011;14685;50.618;7.024;2024-03-25T10:37:13;4.00;;;2.03;;
27163;SDS011;14685;50.618;7.024;2024-03-25T10:39:47;5.60;;;2.10;;
27163;SDS011;14685;50.618;7.024;2024-03-25T10:42:19;5.13;;;2.13;;
27163;SDS011;14685;50.618;7.024;2024-03-25T10:44:45;4.93;;;2.05;;
27163;SDS011;14685;50.618;7.024;2024-03-25T10:47:19;3.75;;;1.92;;
27163;SDS011;14685;50.618;7.024;2024-03-25T10:52:19;5.97;;;2.45;;
27163;SDS011;14685;50.618;7.024;2024-03-25T10:54:47;5.22;;;2.17;;
27163;SDS011;14685;50.618;7.024;2024-03-25T10:57:13;4.53;;;1.75;;
27163;SDS011;14685;50.618;7.024;2024-03-25T10:59:39;3.47;;;1.70;;
27163;SDS011;14685;50.618;7.024;2024-03-25T11:02:08;5.03;;;2.00;;
27163;SDS011;14685;50.618;7.024;2024-03-25T11:04:38;5.95;;;2.13;;
27163;SDS011;14685;50.618;7.024;2024-03-25T11:09:37;6.70;;;2.00;;
27163;SDS011;14685;50.618;7.024;2024-03-25T11:12:04;5.47;;;2.00;;
27163;SDS011;14685;50.618;7.024;2024-03-25T11:14:30;4.03;;;1.85;;
27163;SDS011;14685;50.618;7.024;2024-03-25T11:16:57;5.68;;;2.33;;
27163;SDS011;14685;50.618;7.024;2024-03-25T11:19:27;3.85;;;2.40;;
27163;SDS011;14685;50.618;7.024;2024-03-25T11:21:54;4.60;;;2.63;;
27163;SDS011;14685;50.618;7.024;2024-03-25T11:24:46;4.32;;;2.35;;
27163;SDS011;14685;50.618;7.024;2024-03-25T11:27:12;7.25;;;2.50;;
27163;SDS011;14685;50.618;7.024;2024-03-25T11:29:39;3.28;;;1.80;;
27163;SDS011;14685;50.618;7.024;2024-03-25T11:32:05;4.97;;;1.88;;
27163;SDS011;14685;50.618;7.024;2024-03-25T11:34:33;7.60;;;2.15;;
27163;SDS011;14685;50.618;7.024;2024-03-25T11:37:00;4.93;;;2.10;;
27163;SDS011;14685;50.618;7.024;2024-03-25T11:39:27;4.65;;;2.08;;
27163;SDS011;14685;50.618;7.024;2024-03-25T11:41:54;5.03;;;2.10;;
27163;SDS011;14685;50.618;7.024;2024-03-25T11:44:20;4.88;;;2.20;;
27163;SDS011;14685;50.618;7.024;2024-03-25T11:46:49;4.55;;;2.17;;
27163;SDS011;14685;50.618;7.024;2024-03-25T11:49:16;4.45;;;2.10;;
27163;SDS011;14685;50.618;7.024;2024-03-25T11:52:01;3.70;;;1.83;;
27163;SDS011;14685;50.618;7.024;2024-03-25T11:54:27;4.43;;;1.98;;
27163;SDS011;14685;50.618;7.024;2024-03-25T11:56:54;5.07;;;1.98;;
27163;SDS011;14685;50.618;7.024;2024-03-25T11:59:20;5.32;;;2.05;;
27163;SDS011;14685;50.618;7.024;2024-03-25T12:01:46;5.20;;;1.90;;
27163;SDS011;14685;50.618;7.024;2024-03-25T12:04:16;5.88;;;1.77;;
27163;SDS011;14685;50.618;7.024;2024-03-25T12:06:45;5.07;;;1.92;;
27163;SDS011;14685;50.618;7.024;2024-03-25T12:09:11;7.85;;;2.63;;
27163;SDS011;14685;50.618;7.024;2024-03-25T12:11:56;5.38;;;2.20;;
27163;SDS011;14685;50.618;7.024;2024-03-25T12:14:23;6.70;;;2.25;;
27163;SDS011;14685;50.618;7.024;2024-03-25T12:16:51;7.50;;;2.58;;
27163;SDS011;14685;50.618;7.024;2024-03-25T12:19:19;7.57;;;2.35;;
27163;SDS011;14685;50.618;7.024;2024-03-25T12:21:46;6.65;;;2.30;;
27163;SDS011;14685;50.618;7.024;2024-03-25T12:24:13;8.15;;;2.67;;
27163;SDS011;14685;50.618;7.024;2024-03-25T12:26:39;6.45;;;2.28;;
27163;SDS011;14685;50.618;7.024;2024-03-25T12:29:05;5.40;;;2.15;;
27163;SDS011;14685;50.618;7.024;2024-03-25T12:31:32;6.35;;;2.80;;
27163;SDS011;14685;50.618;7.024;2024-03-25T12:33:58;9.38;;;3.20;;
27163;SDS011;14685;50.618;7.024;2024-03-25T12:36:23;7.63;;;2.42;;
27163;SDS011;14685;50.618;7.024;2024-03-25T12:38:55;5.93;;;2.90;;
27163;SDS011;14685;50.618;7.024;2024-03-25T12:41:23;9.25;;;3.17;;
27163;SDS011;14685;50.618;7.024;2024-03-25T12:43:50;5.43;;;2.70;;
27163;SDS011;14685;50.618;7.024;2024-03-25T12:46:16;5.03;;;2.38;;
27163;SDS011;14685;50.618;7.024;2024-03-25T12:48:43;5.70;;;2.20;;
27163;SDS011;14685;50.618;7.024;2024-03-25T12:51:11;8.00;;;2.92;;
27163;SDS011;14685;50.618;7.024;2024-03-25T12:53:38;6.82;;;2.53;;
27163;SDS011;14685;50.618;7.024;2024-03-25T12:56:04;8.43;;;3.05;;
27163;SDS011;14685;50.618;7.024;2024-03-25T12:58:30;5.68;;;2.28;;
27163;SDS011;14685;50.618;7.024;2024-03-25T13:00:57;8.05;;;3.03;;
27163;SDS011;14685;50.618;7.024;2024-03-25T13:03:23;6.78;;;2.42;;
27163;SDS011;14685;50.618;7.024;2024-03-25T13:05:49;6.68;;;2.38;;
27163;SDS011;14685;50.618;7.024;2024-03-25T13:08:15;3.75;;;2.17;;
27163;SDS011;14685;50.618;7.024;2024-03-25T13:10:42;7.93;;;2.60;;
27163;SDS011;14685;50.618;7.024;2024-03-25T13:13:08;3.08;;;2.05;;
27163;SDS011;14685;50.618;7.024;2024-03-25T13:15:34;5.95;;;2.33;;
27163;SDS011;14685;50.618;7.024;2024-03-25T13:18:00;3.72;;;2.22;;
27163;SDS011;14685;50.618;7.024;2024-03-25T13:20:26;7.93;;;2.30;;
27163;SDS011;14685;50.618;7.024;2024-03-25T13:22:53;5.07;;;2.00;;
27163;SDS011;14685;50.618;7.024;2024-03-25T13:25:24;4.22;;;2.40;;
27163;SDS011;14685;50.618;7.024;2024-03-25T13:27:52;6.90;;;2.33;;
27163;SDS011;14685;50.618;7.024;2024-03-25T13:30:18;5.43;;;2.20;;
27163;SDS011;14685;50.618;7.024;2024-03-25T13:32:44;4.60;;;2.20;;
27163;SDS011;14685;50.618;7.024;2024-03-25T13:35:10;6.60;;;1.85;;
27163;SDS011;14685;50.618;7.024;2024-03-25T13:37:35;7.63;;;2.05;;
27163;SDS011;14685;50.618;7.024;2024-03-25T13:40:01;4.43;;;2.10;;
27163;SDS011;14685;50.618;7.024;2024-03-25T13:42:28;5.88;;;2.35;;
27163;SDS011;14685;50.618;7.024;2024-03-25T13:44:54;6.60;;;2.55;;
27163;SDS011;14685;50.618;7.024;2024-03-25T13:47:19;5.00;;;2.10;;
27163;SDS011;14685;50.618;7.024;2024-03-25T13:49:46;6.38;;;2.15;;
27163;SDS011;14685;50.618;7.024;2024-03-25T13:52:12;5.20;;;2.28;;
27163;SDS011;14685;50.618;7.024;2024-03-25T13:54:38;6.22;;;2.38;;
27163;SDS011;14685;50.618;7.024;2024-03-25T13:57:03;2.38;;;1.63;;
27163;SDS011;14685;50.618;7.024;2024-03-25T13:59:29;4.97;;;2.28;;
27163;SDS011;14685;50.618;7.024;2024-03-25T14:01:55;5.25;;;2.67;;
27163;SDS011;14685;50.618;7.024;2024-03-25T14:04:21;3.95;;;2.05;;
27163;SDS011;14685;50.618;7.024;2024-03-25T14:06:48;5.78;;;2.22;;
27163;SDS011;14685;50.618;7.024;2024-03-25T14:09:23;9.15;;;2.50;;
27163;SDS011;14685;50.618;7.024;2024-03-25T14:11:49;8.77;;;2.30;;
27163;SDS011;14685;50.618;7.024;2024-03-25T14:14:15;4.35;;;2.13;;
27163;SDS011;14685;50.618;7.024;2024-03-25T14:16:41;4.38;;;2.08;;
27163;SDS011;14685;50.618;7.024;2024-03-25T14:19:08;4.65;;;2.28;;
27163;SDS011;14685;50.618;7.024;2024-03-25T14:21:34;4.00;;;2.33;;
27163;SDS011;14685;50.618;7.024;2024-03-25T14:24:00;6.00;;;2.88;;
27163;SDS011;14685;50.618;7.024;2024-03-25T14:26:27;5.88;;;2.08;;
27163;SDS011;14685;50.618;7.024;2024-03-25T14:28:52;6.95;;;2.40;;
27163;SDS011;14685;50.618;7.024;2024-03-25T14:31:18;7.30;;;2.60;;
27163;SDS011;14685;50.618;7.024;2024-03-25T14:33:44;3.55;;;2.28;;
27163;SDS011;14685;50.618;7.024;2024-03-25T14:36:10;6.15;;;2.85;;
27163;SDS011;14685;50.618;7.024;2024-03-25T14:38:35;5.53;;;2.30;;
27163;SDS011;14685;50.618;7.024;2024-03-25T14:41:04;4.95;;;2.67;;
27163;SDS011;14685;50.618;7.024;2024-03-25T14:43:30;4.90;;;2.30;;
27163;SDS011;14685;50.618;7.024;2024-03-25T14:45:56;6.43;;;2.28;;
27163;SDS011;14685;50.618;7.024;2024-03-25T14:48:22;4.30;;;2.42;;